createdAt,value
2022-12-11T00:00:26.373Z,52.78
2022-12-11T00:02:53.663Z,50.88
2022-12-11T00:05:20.997Z,49.88
2022-12-11T00:07:48.225Z,50.60
2022-12-11T00:10:15.505Z,44.85
2022-12-11T00:12:43.173Z,49.90
2022-12-11T00:15:10.928Z,49.65
2022-12-11T00:17:38.806Z,49.58
2022-12-11T00:20:07.908Z,49.97
2022-12-11T00:22:35.434Z,44.88
2022-12-11T00:25:02.763Z,46.63
2022-12-11T00:27:29.984Z,48.67
2022-12-11T00:29:57.288Z,47.83
2022-12-11T00:32:28.237Z,47.58
2022-12-11T00:34:55.729Z,48.70
2022-12-11T00:37:23.052Z,48.47
2022-12-11T00:39:50.491Z,50.13
2022-12-11T00:42:17.678Z,48.47
2022-12-11T00:44:44.871Z,49.63
2022-12-11T00:47:12.591Z,46.97
2022-12-11T00:49:41.234Z,46.40
2022-12-11T00:52:11.141Z,53.93
2022-12-11T00:54:38.374Z,51.22
2022-12-11T00:57:05.566Z,52.08
2022-12-11T00:59:32.753Z,50.63
2022-12-11T01:02:00.064Z,50.50
2022-12-11T01:04:27.305Z,51.28
2022-12-11T01:06:54.564Z,52.10
2022-12-11T01:09:40.551Z,52.08
2022-12-11T01:12:07.850Z,53.53
2022-12-11T01:14:35.084Z,52.17
2022-12-11T01:17:02.336Z,53.07
2022-12-11T01:19:29.620Z,52.50
2022-12-11T01:21:56.877Z,53.53
2022-12-11T01:24:24.086Z,52.75
2022-12-11T01:26:51.309Z,53.65
2022-12-11T01:29:18.547Z,55.72
2022-12-11T01:31:45.768Z,53.33
2022-12-11T01:34:13.002Z,53.92
2022-12-11T01:36:40.207Z,53.17
2022-12-11T01:39:07.450Z,53.10
2022-12-11T01:41:34.733Z,52.67
2022-12-11T01:44:22.177Z,55.80
2022-12-11T01:46:49.493Z,60.13
2022-12-11T01:49:18.716Z,51.97
2022-12-11T01:52:19.653Z,53.55
2022-12-11T01:54:48.255Z,54.42
2022-12-11T01:57:16.390Z,53.27
2022-12-11T01:59:45.988Z,54.45
2022-12-11T02:02:30.239Z,54.80
2022-12-11T02:04:57.538Z,53.67
2022-12-11T02:07:25.026Z,57.53
2022-12-11T02:09:52.362Z,52.08
2022-12-11T02:12:36.200Z,55.25
2022-12-11T02:15:20.332Z,54.05
2022-12-11T02:18:09.113Z,55.70
2022-12-11T02:20:39.170Z,58.08
2022-12-11T02:23:15.280Z,50.80
2022-12-11T02:26:05.761Z,51.03
2022-12-11T02:28:55.753Z,50.08
2022-12-11T02:31:37.032Z,52.28
2022-12-11T02:34:17.873Z,51.03
2022-12-11T02:36:50.082Z,53.78
2022-12-11T02:39:18.853Z,50.90
2022-12-11T02:41:51.271Z,50.47
2022-12-11T02:44:24.491Z,50.72
2022-12-11T02:46:52.958Z,48.92
2022-12-11T02:49:21.745Z,49.45
2022-12-11T02:51:50.603Z,49.35
2022-12-11T02:54:22.395Z,45.57
2022-12-11T02:56:58.905Z,50.72
2022-12-11T02:59:35.717Z,49.10
2022-12-11T03:02:03.828Z,48.60
2022-12-11T03:04:32.132Z,50.50
2022-12-11T03:07:11.902Z,48.65
2022-12-11T03:09:43.920Z,47.70
2022-12-11T03:12:13.764Z,47.45
2022-12-11T03:14:42.297Z,48.45
2022-12-11T03:17:20.040Z,45.50
2022-12-11T03:19:50.189Z,47.43
2022-12-11T03:22:29.886Z,46.85
2022-12-11T03:25:13.344Z,45.60
2022-12-11T03:27:46.936Z,45.63
2022-12-11T03:30:17.539Z,46.33
2022-12-11T03:33:03.458Z,47.17
2022-12-11T03:35:41.190Z,48.22
2022-12-11T03:38:21.114Z,46.35
2022-12-11T03:40:53.161Z,47.15
2022-12-11T03:43:21.939Z,46.00
2022-12-11T03:45:52.358Z,48.07
2022-12-11T03:48:21.396Z,48.50
2022-12-11T03:50:50.026Z,47.15
2022-12-11T03:53:19.605Z,46.47
2022-12-11T03:55:51.464Z,44.50
2022-12-11T03:58:18.728Z,46.90
2022-12-11T04:00:45.937Z,46.05
2022-12-11T04:03:14.150Z,47.15
2022-12-11T04:05:47.854Z,46.85
2022-12-11T04:08:16.201Z,44.60
2022-12-11T04:10:43.699Z,43.97
2022-12-11T04:13:11.288Z,45.72
2022-12-11T04:15:39.419Z,43.00
2022-12-11T04:18:26.008Z,42.65
2022-12-11T04:21:13.001Z,42.85
2022-12-11T04:23:59.021Z,41.67
2022-12-11T04:26:26.335Z,41.35
2022-12-11T04:28:53.625Z,39.33
2022-12-11T04:31:22.583Z,40.50
2022-12-11T04:33:50.195Z,38.30
2022-12-11T04:36:17.798Z,38.80
2022-12-11T04:38:45.071Z,38.13
2022-12-11T04:41:14.510Z,38.97
2022-12-11T04:43:45.062Z,39.03
2022-12-11T04:46:21.367Z,38.07
2022-12-11T04:48:52.534Z,39.73
2022-12-11T04:51:24.457Z,37.90
2022-12-11T04:53:51.921Z,39.30
2022-12-11T04:56:19.863Z,39.90
2022-12-11T04:58:47.822Z,39.60
2022-12-11T05:01:18.103Z,38.15
2022-12-11T05:03:45.945Z,38.33
2022-12-11T05:06:14.173Z,39.40
2022-12-11T05:08:42.536Z,39.85
2022-12-11T05:11:11.878Z,39.00
2022-12-11T05:13:39.983Z,37.75
2022-12-11T05:16:09.571Z,40.03
2022-12-11T05:18:36.886Z,39.33
2022-12-11T05:21:07.347Z,38.78
2022-12-11T05:23:34.895Z,36.25
2022-12-11T05:26:07.955Z,37.17
2022-12-11T05:28:38.069Z,38.93
2022-12-11T05:31:08.724Z,37.50
2022-12-11T05:33:36.152Z,37.70
2022-12-11T05:36:03.904Z,36.00
2022-12-11T05:38:31.165Z,40.38
2022-12-11T05:41:00.990Z,39.67
2022-12-11T05:43:30.698Z,38.30
2022-12-11T05:46:07.653Z,41.50
2022-12-11T05:48:35.832Z,40.08
2022-12-11T05:51:04.879Z,41.37
2022-12-11T05:53:32.592Z,39.38
2022-12-11T05:56:05.122Z,42.00
2022-12-11T05:58:33.260Z,40.47
2022-12-11T06:01:00.571Z,43.00
2022-12-11T06:03:28.175Z,41.13
2022-12-11T06:05:55.761Z,41.95
2022-12-11T06:08:23.337Z,42.87
2022-12-11T06:10:50.917Z,45.65
2022-12-11T06:13:18.367Z,44.00
2022-12-11T06:15:45.674Z,43.00
2022-12-11T06:18:12.975Z,43.15
2022-12-11T06:20:40.150Z,44.38
2022-12-11T06:23:07.584Z,41.00
2022-12-11T06:25:34.989Z,43.27
2022-12-11T06:28:02.274Z,40.97
2022-12-11T06:30:39.139Z,40.13
2022-12-11T06:33:07.234Z,40.58
2022-12-11T06:35:40.255Z,43.00
2022-12-11T06:38:10.642Z,40.90
2022-12-11T06:40:38.352Z,44.92
2022-12-11T06:43:05.574Z,43.38
2022-12-11T06:45:32.851Z,42.00
2022-12-11T06:48:00.192Z,42.92
2022-12-11T06:50:27.480Z,43.20
2022-12-11T06:52:56.742Z,42.50
2022-12-11T06:55:23.894Z,43.80
2022-12-11T06:57:51.196Z,42.00
2022-12-11T07:00:18.503Z,42.55
2022-12-11T07:02:45.673Z,41.97
2022-12-11T07:05:13.412Z,40.00
2022-12-11T07:07:40.875Z,42.47
2022-12-11T07:10:08.928Z,41.63
2022-12-11T07:12:36.590Z,40.90
2022-12-11T07:15:05.255Z,41.90
2022-12-11T07:17:32.508Z,42.70
2022-12-11T07:19:59.765Z,41.33
2022-12-11T07:22:28.397Z,40.78
2022-12-11T07:24:55.775Z,38.45
2022-12-11T07:27:23.128Z,39.97
2022-12-11T07:29:51.181Z,39.72
2022-12-11T07:32:18.602Z,40.15
2022-12-11T07:34:51.411Z,39.55
2022-12-11T07:37:19.148Z,39.72
2022-12-11T07:39:46.438Z,39.57
2022-12-11T07:42:13.632Z,39.22
2022-12-11T07:44:40.825Z,41.63
2022-12-11T07:47:08.097Z,39.70
2022-12-11T07:49:35.297Z,40.78
2022-12-11T07:52:02.525Z,38.45
2022-12-11T07:54:29.712Z,38.90
2022-12-11T07:56:57.369Z,38.67
2022-12-11T07:59:24.601Z,37.10
2022-12-11T08:01:51.882Z,38.50
2022-12-11T08:04:19.134Z,37.97
2022-12-11T08:06:46.337Z,37.20
2022-12-11T08:09:20.727Z,37.70
2022-12-11T08:11:50.607Z,38.88
2022-12-11T08:14:18.279Z,38.38
2022-12-11T08:16:45.557Z,37.30
2022-12-11T08:19:13.392Z,37.78
2022-12-11T08:21:41.099Z,38.10
2022-12-11T08:24:09.132Z,38.60
2022-12-11T08:26:36.629Z,39.60
2022-12-11T08:29:04.096Z,37.38
2022-12-11T08:31:33.468Z,36.78
2022-12-11T08:34:00.818Z,39.00
2022-12-11T08:36:28.629Z,36.03
2022-12-11T08:38:56.565Z,37.55
2022-12-11T08:41:26.525Z,40.03
2022-12-11T08:43:55.062Z,37.63
2022-12-11T08:46:28.783Z,37.53
2022-12-11T08:48:56.512Z,37.45
2022-12-11T08:51:26.479Z,36.15
2022-12-11T08:53:58.465Z,35.03
2022-12-11T08:56:26.833Z,38.33
2022-12-11T08:58:54.370Z,39.08
2022-12-11T09:01:26.572Z,39.90
2022-12-11T09:03:55.582Z,39.47
2022-12-11T09:06:25.442Z,39.87
2022-12-11T09:08:53.581Z,41.40
2022-12-11T09:11:27.396Z,39.47
2022-12-11T09:13:55.188Z,39.88
2022-12-11T09:16:24.983Z,41.23
2022-12-11T09:18:53.915Z,40.58
2022-12-11T09:21:24.697Z,40.67
2022-12-11T09:23:58.207Z,39.45
2022-12-11T09:26:26.851Z,42.33
2022-12-11T09:28:54.868Z,40.47
2022-12-11T09:31:26.329Z,40.38
2022-12-11T09:33:59.038Z,41.20
2022-12-11T09:36:27.614Z,42.10
2022-12-11T09:38:54.888Z,35.00
2022-12-11T09:41:22.069Z,41.13
2022-12-11T09:43:59.841Z,42.80
2022-12-11T09:46:33.712Z,41.83
2022-12-11T09:49:04.368Z,42.03
2022-12-11T09:51:47.285Z,39.28
2022-12-11T09:54:15.219Z,41.63
2022-12-11T09:57:10.453Z,40.87
2022-12-11T10:00:05.891Z,39.35
2022-12-11T10:03:15.598Z,38.28
2022-12-11T10:05:53.500Z,32.38
2022-12-11T10:08:40.043Z,29.65
2022-12-11T10:11:41.965Z,29.15
2022-12-11T10:14:33.162Z,30.03
2022-12-11T10:17:12.508Z,33.60
2022-12-11T10:19:41.737Z,35.65
2022-12-11T10:22:26.949Z,38.88
2022-12-11T10:25:12.524Z,40.20
2022-12-11T10:27:41.115Z,39.70
2022-12-11T10:30:23.653Z,41.30
2022-12-11T10:33:01.203Z,42.30
2022-12-11T10:35:56.804Z,42.05
2022-12-11T10:38:32.549Z,39.55
2022-12-11T10:41:06.129Z,41.70
2022-12-11T10:43:45.913Z,39.80
2022-12-11T10:46:18.403Z,40.13
2022-12-11T10:48:48.222Z,41.17
2022-12-11T10:51:15.919Z,39.58
2022-12-11T10:53:44.543Z,38.45
2022-12-11T10:56:12.584Z,40.95
2022-12-11T10:58:48.726Z,42.70
2022-12-11T11:01:19.936Z,42.35
2022-12-11T11:03:54.820Z,41.80
2022-12-11T11:06:22.843Z,37.47
2022-12-11T11:08:53.138Z,42.40
2022-12-11T11:11:27.580Z,43.13
2022-12-11T11:14:27.164Z,41.93
2022-12-11T11:17:00.974Z,41.08
2022-12-11T11:19:33.426Z,37.72
2022-12-11T11:22:12.868Z,40.22
2022-12-11T11:24:44.393Z,43.33
2022-12-11T11:27:30.910Z,39.28
2022-12-11T11:30:01.633Z,38.97
2022-12-11T11:32:36.356Z,40.10
2022-12-11T11:35:12.854Z,39.78
2022-12-11T11:37:44.469Z,37.30
2022-12-11T11:40:20.284Z,38.57
2022-12-11T11:43:12.150Z,35.65
2022-12-11T11:45:57.655Z,37.80
2022-12-11T11:48:30.771Z,37.10
2022-12-11T11:51:08.375Z,38.58
2022-12-11T11:53:40.498Z,41.15
2022-12-11T11:56:31.686Z,37.20
2022-12-11T11:59:12.231Z,37.75
2022-12-11T12:01:42.204Z,40.85
2022-12-11T12:04:10.880Z,40.35
2022-12-11T12:07:02.221Z,42.45
2022-12-11T12:09:51.631Z,41.05
2022-12-11T12:12:51.123Z,41.50
2022-12-11T12:15:47.029Z,40.33
2022-12-11T12:18:40.192Z,39.67
2022-12-11T12:21:24.074Z,42.87
2022-12-11T12:24:06.589Z,43.38
2022-12-11T12:26:36.870Z,43.10
2022-12-11T12:29:31.864Z,41.47
2022-12-11T12:32:12.755Z,41.75
2022-12-11T12:34:39.965Z,42.33
2022-12-11T12:37:42.395Z,43.70
2022-12-11T12:40:55.704Z,42.28
2022-12-11T12:43:57.036Z,41.97
2022-12-11T12:46:28.920Z,41.80
2022-12-11T12:48:59.012Z,41.03
2022-12-11T12:51:27.371Z,41.75
2022-12-11T12:54:01.448Z,40.20
2022-12-11T12:56:31.983Z,40.13
2022-12-11T12:58:59.216Z,39.58
2022-12-11T13:01:28.509Z,40.15
2022-12-11T13:04:02.147Z,44.30
2022-12-11T13:06:44.067Z,38.30
2022-12-11T13:09:24.376Z,39.45
2022-12-11T13:11:57.540Z,39.15
2022-12-11T13:14:28.730Z,40.88
2022-12-11T13:17:25.366Z,39.15
2022-12-11T13:20:16.190Z,36.67
2022-12-11T13:23:00.022Z,35.67
2022-12-11T13:25:30.440Z,35.30
2022-12-11T13:28:19.666Z,35.55
2022-12-11T13:31:01.331Z,33.65
2022-12-11T13:33:30.436Z,35.35
2022-12-11T13:36:22.784Z,33.97
2022-12-11T13:39:17.336Z,32.58
2022-12-11T13:41:48.809Z,30.10
2022-12-11T13:44:25.923Z,32.70
2022-12-11T13:46:55.900Z,35.72
2022-12-11T13:49:29.984Z,40.05
2022-12-11T13:51:59.916Z,39.72
2022-12-11T13:54:29.147Z,42.10
2022-12-11T13:57:18.246Z,43.28
2022-12-11T13:59:57.865Z,38.45
2022-12-11T14:02:29.796Z,42.20
2022-12-11T14:05:03.366Z,44.47
2022-12-11T14:07:36.954Z,43.37
2022-12-11T14:10:09.555Z,43.00
2022-12-11T14:12:37.470Z,44.42
2022-12-11T14:15:05.450Z,43.07
2022-12-11T14:17:34.852Z,45.80
2022-12-11T14:20:08.140Z,46.10
2022-12-11T14:22:35.435Z,45.92
2022-12-11T14:25:19.450Z,47.80
2022-12-11T14:27:51.908Z,48.67
2022-12-11T14:30:28.004Z,44.35
2022-12-11T14:32:58.964Z,45.95
2022-12-11T14:35:41.691Z,44.20
2022-12-11T14:38:22.565Z,44.28
2022-12-11T14:40:54.542Z,44.05
2022-12-11T14:43:29.816Z,44.30
2022-12-11T14:46:06.750Z,43.13
2022-12-11T14:48:44.012Z,44.33
2022-12-11T14:51:14.426Z,44.10
2022-12-11T14:53:46.139Z,44.78
2022-12-11T14:56:21.147Z,46.67
2022-12-11T14:59:00.638Z,43.83
2022-12-11T15:01:33.805Z,44.63
2022-12-11T15:04:16.122Z,46.50
2022-12-11T15:06:48.304Z,43.28
2022-12-11T15:09:18.649Z,43.10
2022-12-11T15:11:48.294Z,44.22
2022-12-11T15:14:17.784Z,46.45
2022-12-11T15:16:46.611Z,44.33
2022-12-11T15:19:21.044Z,44.67
2022-12-11T15:21:48.838Z,42.35
2022-12-11T15:24:48.442Z,44.33
2022-12-11T15:27:35.642Z,44.25
2022-12-11T15:30:29.089Z,45.33
2022-12-11T15:33:11.531Z,44.30
2022-12-11T15:35:40.302Z,45.40
2022-12-11T15:38:30.707Z,47.05
2022-12-11T15:40:58.133Z,49.15
2022-12-11T15:43:26.168Z,47.20
2022-12-11T15:45:53.644Z,45.65
2022-12-11T15:48:20.932Z,44.78
2022-12-11T15:50:48.271Z,45.10
2022-12-11T15:53:15.440Z,47.47
2022-12-11T15:55:42.724Z,46.17
2022-12-11T15:58:19.252Z,41.90
2022-12-11T16:00:46.913Z,46.50
2022-12-11T16:03:16.292Z,45.67
2022-12-11T16:05:44.075Z,45.40
2022-12-11T16:08:16.955Z,43.85
2022-12-11T16:10:45.398Z,47.43
2022-12-11T16:13:13.631Z,46.20
2022-12-11T16:15:43.960Z,44.97
2022-12-11T16:18:15.421Z,46.50
2022-12-11T16:20:44.379Z,46.05
2022-12-11T16:23:13.532Z,45.70
2022-12-11T16:25:42.502Z,43.43
2022-12-11T16:28:11.553Z,46.72
2022-12-11T16:30:39.285Z,46.53
2022-12-11T16:33:12.510Z,45.22
2022-12-11T16:35:41.862Z,43.87
2022-12-11T16:38:10.499Z,46.63
2022-12-11T16:40:38.246Z,43.92
2022-12-11T16:43:05.900Z,45.50
2022-12-11T16:45:33.973Z,44.87
2022-12-11T16:48:05.220Z,45.65
2022-12-11T16:50:32.497Z,44.58
2022-12-11T16:52:59.814Z,42.92
2022-12-11T16:55:27.111Z,47.58
2022-12-11T16:57:55.095Z,50.65
2022-12-11T17:00:22.748Z,45.47
2022-12-11T17:02:50.407Z,52.30
2022-12-11T17:05:17.654Z,62.63
2022-12-11T17:07:44.978Z,55.33
2022-12-11T17:10:12.449Z,48.70
2022-12-11T17:12:39.807Z,59.80
2022-12-11T17:15:07.471Z,51.60
2022-12-11T17:17:34.727Z,57.35
2022-12-11T17:20:02.073Z,43.17
2022-12-11T17:22:29.890Z,46.03
2022-12-11T17:24:57.075Z,53.28
2022-12-11T17:27:24.284Z,51.33
2022-12-11T17:29:51.558Z,56.42
2022-12-11T17:32:18.892Z,48.13
2022-12-11T17:34:48.153Z,47.10
2022-12-11T17:37:15.784Z,47.20
2022-12-11T17:39:43.259Z,46.63
2022-12-11T17:42:10.751Z,40.95
2022-12-11T17:44:38.848Z,45.55
2022-12-11T17:47:10.807Z,40.93
2022-12-11T17:49:40.355Z,43.03
2022-12-11T17:52:07.860Z,42.63
2022-12-11T17:54:35.125Z,42.10
2022-12-11T17:57:02.674Z,41.53
2022-12-11T17:59:30.001Z,42.50
2022-12-11T18:01:57.688Z,41.83
2022-12-11T18:04:25.262Z,42.13
2022-12-11T18:06:52.521Z,44.65
2022-12-11T18:09:19.746Z,41.10
2022-12-11T18:11:46.977Z,40.83
2022-12-11T18:14:17.390Z,42.15
2022-12-11T18:16:44.992Z,38.63
2022-12-11T18:19:12.684Z,41.75
2022-12-11T18:21:43.752Z,42.60
2022-12-11T18:24:11.510Z,43.15
2022-12-11T18:26:38.830Z,42.95
2022-12-11T18:29:06.646Z,41.53
2022-12-11T18:31:38.883Z,41.42
2022-12-11T18:34:10.819Z,42.83
2022-12-11T18:36:38.371Z,44.22
2022-12-11T18:39:05.608Z,44.97
2022-12-11T18:41:32.898Z,44.50
2022-12-11T18:44:05.180Z,47.35
2022-12-11T18:46:35.313Z,43.75
2022-12-11T18:49:02.726Z,43.03
2022-12-11T18:51:30.226Z,40.67
2022-12-11T18:53:57.516Z,42.67
2022-12-11T18:56:24.750Z,41.65
2022-12-11T18:58:52.287Z,42.25
2022-12-11T19:01:25.442Z,39.47
2022-12-11T19:04:03.255Z,39.97
2022-12-11T19:06:35.233Z,39.13
2022-12-11T19:09:04.260Z,44.53
2022-12-11T19:11:32.917Z,39.10
2022-12-11T19:14:00.455Z,43.05
2022-12-11T19:16:32.578Z,39.83
2022-12-11T19:19:01.665Z,38.13
2022-12-11T19:21:30.669Z,40.35
2022-12-11T19:23:59.287Z,42.17
2022-12-11T19:26:27.075Z,40.63
2022-12-11T19:28:56.848Z,40.30
2022-12-11T19:31:24.088Z,39.08
2022-12-11T19:33:51.276Z,36.83
2022-12-11T19:36:22.463Z,36.53
2022-12-11T19:38:50.230Z,37.25
2022-12-11T19:41:24.873Z,37.85
2022-12-11T19:43:52.415Z,36.85
2022-12-11T19:46:20.403Z,37.10
2022-12-11T19:48:52.213Z,36.35
2022-12-11T19:51:26.725Z,37.67
2022-12-11T19:53:54.228Z,37.58
2022-12-11T19:56:21.436Z,38.90
2022-12-11T19:58:49.779Z,38.58
2022-12-11T20:01:30.921Z,38.20
2022-12-11T20:04:00.660Z,38.97
2022-12-11T20:06:29.523Z,39.70
2022-12-11T20:08:57.231Z,39.27
2022-12-11T20:11:25.128Z,38.97
2022-12-11T20:13:55.382Z,41.03
2022-12-11T20:16:39.652Z,39.88
2022-12-11T20:19:10.503Z,41.63
2022-12-11T20:21:37.750Z,38.40
2022-12-11T20:24:05.324Z,35.90
2022-12-11T20:26:35.879Z,37.05
2022-12-11T20:29:07.160Z,34.45
2022-12-11T20:31:35.709Z,35.78
2022-12-11T20:34:03.534Z,37.87
2022-12-11T20:36:30.973Z,36.15
2022-12-11T20:38:58.394Z,36.15
2022-12-11T20:41:26.803Z,38.28
2022-12-11T20:43:54.477Z,38.17
2022-12-11T20:46:27.725Z,39.35
2022-12-11T20:48:58.458Z,36.17
2022-12-11T20:51:26.724Z,35.28
2022-12-11T20:53:59.099Z,36.55
2022-12-11T20:56:31.049Z,36.97
2022-12-11T20:58:59.840Z,36.70
2022-12-11T21:01:29.739Z,37.35
2022-12-11T21:03:57.827Z,35.90
2022-12-11T21:06:31.855Z,38.53
2022-12-11T21:09:00.976Z,38.47
2022-12-11T21:11:28.480Z,38.55
2022-12-11T21:13:55.925Z,39.03
2022-12-11T21:16:23.808Z,38.73
2022-12-11T21:18:51.900Z,40.60
2022-12-11T21:21:20.375Z,39.67
2022-12-11T21:23:47.646Z,39.45
2022-12-11T21:26:15.666Z,39.88
2022-12-11T21:28:42.969Z,39.97
2022-12-11T21:31:14.125Z,39.63
2022-12-11T21:33:41.672Z,38.28
2022-12-11T21:36:11.099Z,39.03
2022-12-11T21:38:39.248Z,41.03
2022-12-11T21:41:08.645Z,38.90
2022-12-11T21:43:35.953Z,36.55
2022-12-11T21:46:03.911Z,38.80
2022-12-11T21:48:31.520Z,40.70
2022-12-11T21:51:12.040Z,39.05
2022-12-11T21:53:39.363Z,38.15
2022-12-11T21:56:15.256Z,36.05
2022-12-11T21:58:42.881Z,38.15
2022-12-11T22:01:21.031Z,37.78
2022-12-11T22:03:49.302Z,38.28
2022-12-11T22:06:16.583Z,39.17
2022-12-11T22:08:43.767Z,35.45
2022-12-11T22:11:10.955Z,36.22
2022-12-11T22:13:38.130Z,37.63
2022-12-11T22:16:05.425Z,36.95
2022-12-11T22:18:32.682Z,37.90
2022-12-11T22:20:59.880Z,38.13
2022-12-11T22:23:27.111Z,38.53
2022-12-11T22:25:54.692Z,38.22
2022-12-11T22:28:21.915Z,37.55
2022-12-11T22:30:49.149Z,37.22
2022-12-11T22:33:16.426Z,38.00
2022-12-11T22:35:43.721Z,36.45
2022-12-11T22:38:10.969Z,38.13
2022-12-11T22:40:41.775Z,38.33
2022-12-11T22:43:08.997Z,37.17
2022-12-11T22:45:40.491Z,39.42
2022-12-11T22:48:08.415Z,37.38
2022-12-11T22:50:37.205Z,37.72
2022-12-11T22:53:05.203Z,37.78
2022-12-11T22:55:33.112Z,39.30
2022-12-11T22:58:00.405Z,40.15
2022-12-11T23:00:27.624Z,38.75
2022-12-11T23:02:55.121Z,40.93
2022-12-11T23:05:22.415Z,39.35
2022-12-11T23:07:49.752Z,39.07
2022-12-11T23:10:17.014Z,40.67
2022-12-11T23:12:44.264Z,39.40
2022-12-11T23:15:13.682Z,40.22
2022-12-11T23:17:41.092Z,40.47
2022-12-11T23:20:08.833Z,38.92
2022-12-11T23:22:36.071Z,38.17
2022-12-11T23:25:04.240Z,37.80
2022-12-11T23:27:31.726Z,39.25
2022-12-11T23:29:58.944Z,40.05
2022-12-11T23:32:27.916Z,39.33
2022-12-11T23:34:55.067Z,40.73
2022-12-11T23:37:22.266Z,39.15
2022-12-11T23:39:49.512Z,36.42
2022-12-11T23:42:16.931Z,36.10
2022-12-11T23:44:44.250Z,36.85
2022-12-11T23:47:11.387Z,40.30
2022-12-11T23:49:38.557Z,35.60
2022-12-11T23:52:05.862Z,37.20
2022-12-11T23:54:33.112Z,36.20
2022-12-11T23:57:00.328Z,37.33
2022-12-11T23:59:27.499Z,36.55
